createdAt,value
2022-11-06T00:01:13.014Z,13.90
2022-11-06T00:03:42.201Z,13.00
2022-11-06T00:06:31.216Z,13.50
2022-11-06T00:09:01.114Z,12.90
2022-11-06T00:11:30.350Z,12.80
2022-11-06T00:14:00.199Z,12.40
2022-11-06T00:16:29.190Z,12.20
2022-11-06T00:19:00.125Z,13.30
2022-11-06T00:21:30.255Z,12.80
2022-11-06T00:24:00.606Z,14.10
2022-11-06T00:26:30.883Z,14.00
2022-11-06T00:28:59.765Z,13.20
2022-11-06T00:31:30.561Z,12.80
2022-11-06T00:34:00.496Z,13.50
2022-11-06T00:36:32.813Z,12.40
2022-11-06T00:39:01.325Z,12.30
2022-11-06T00:41:29.589Z,13.00
2022-11-06T00:44:00.711Z,12.90
2022-11-06T00:46:29.978Z,14.40
2022-11-06T00:48:58.189Z,14.60
2022-11-06T00:51:39.351Z,13.00
2022-11-06T00:54:11.475Z,12.70
2022-11-06T00:56:40.273Z,14.00
2022-11-06T00:59:12.523Z,13.30
2022-11-06T01:01:44.070Z,13.20
2022-11-06T01:04:15.135Z,14.60
2022-11-06T01:06:46.206Z,14.90
2022-11-06T01:09:17.245Z,15.50
2022-11-06T01:14:43.352Z,15.20
2022-11-06T01:17:12.111Z,13.00
2022-11-06T01:19:40.325Z,13.90
2022-11-06T01:22:08.713Z,13.80
2022-11-06T01:24:36.864Z,13.90
2022-11-06T01:27:25.443Z,13.90
2022-11-06T01:29:53.235Z,13.20
2022-11-06T01:32:21.265Z,14.40
2022-11-06T01:34:51.147Z,14.70
2022-11-06T01:37:19.493Z,13.50
2022-11-06T01:39:50.550Z,13.20
2022-11-06T01:45:29.514Z,11.30
2022-11-06T01:47:57.826Z,12.70
2022-11-06T01:50:27.157Z,12.00
2022-11-06T01:52:56.201Z,13.10
2022-11-06T01:55:30.502Z,12.20
2022-11-06T01:58:01.803Z,14.20
2022-11-06T02:05:00.281Z,13.90
2022-11-06T02:07:28.681Z,14.00
2022-11-06T02:09:56.839Z,15.20
2022-11-06T02:12:27.867Z,13.80
2022-11-06T02:15:21.414Z,14.70
2022-11-06T02:18:11.687Z,13.80
2022-11-06T02:21:15.404Z,14.20
2022-11-06T02:24:17.734Z,14.80
2022-11-06T02:27:13.707Z,13.70
2022-11-06T02:29:47.934Z,15.30
2022-11-06T02:32:32.367Z,14.20
2022-11-06T02:35:03.798Z,15.40
2022-11-06T02:37:37.046Z,15.20
2022-11-06T02:40:08.927Z,15.20
2022-11-06T02:42:45.865Z,15.40
2022-11-06T02:45:17.467Z,15.60
2022-11-06T02:47:49.171Z,16.30
2022-11-06T02:50:35.067Z,16.90
2022-11-06T02:53:06.409Z,17.50
2022-11-06T02:55:40.256Z,16.70
2022-11-06T02:58:14.442Z,16.20
2022-11-06T03:00:53.212Z,15.60
2022-11-06T03:03:28.193Z,14.80
2022-11-06T03:06:07.285Z,15.20
2022-11-06T03:09:02.739Z,15.20
2022-11-06T03:11:38.976Z,14.70
2022-11-06T03:14:10.126Z,15.20
2022-11-06T03:16:54.946Z,14.20
2022-11-06T03:19:42.789Z,14.80
2022-11-06T03:22:30.878Z,15.10
2022-11-06T03:25:05.771Z,16.50
2022-11-06T03:27:40.597Z,18.10
2022-11-06T03:30:16.498Z,16.80
2022-11-06T03:32:53.971Z,16.90
2022-11-06T03:35:22.279Z,15.90
2022-11-06T03:37:54.304Z,15.90
2022-11-06T03:40:26.033Z,13.60
2022-11-06T03:43:00.740Z,14.30
2022-11-06T03:45:32.326Z,14.10
2022-11-06T03:48:09.337Z,14.60
2022-11-06T03:50:54.335Z,14.20
2022-11-06T03:53:35.226Z,15.30
2022-11-06T03:56:08.669Z,13.60
2022-11-06T03:58:40.838Z,14.00
2022-11-06T04:01:10.986Z,13.80
2022-11-06T04:03:54.070Z,14.10
2022-11-06T04:06:29.165Z,14.30
2022-11-06T04:09:22.990Z,13.60
2022-11-06T04:12:10.708Z,13.80
2022-11-06T04:14:45.266Z,13.20
2022-11-06T04:17:15.383Z,13.80
2022-11-06T04:19:50.607Z,13.30
2022-11-06T04:22:33.648Z,13.00
2022-11-06T04:25:41.590Z,12.60
2022-11-06T04:28:18.451Z,13.60
2022-11-06T04:30:51.191Z,12.90
2022-11-06T04:33:45.369Z,12.90
2022-11-06T04:36:37.660Z,13.30
2022-11-06T04:39:38.941Z,12.60
2022-11-06T04:44:49.333Z,12.60
2022-11-06T04:47:20.662Z,13.10
2022-11-06T04:49:52.276Z,13.50
2022-11-06T04:52:25.647Z,12.70
2022-11-06T04:54:56.317Z,13.30
2022-11-06T04:57:25.806Z,11.90
2022-11-06T04:59:54.427Z,11.90
2022-11-06T05:02:23.046Z,12.30
2022-11-06T05:04:51.406Z,11.80
2022-11-06T05:07:19.402Z,12.60
2022-11-06T05:09:47.520Z,12.80
2022-11-06T05:12:15.770Z,13.40
2022-11-06T05:14:43.868Z,11.80
2022-11-06T05:17:11.903Z,12.80
2022-11-06T05:19:40.284Z,12.10
2022-11-06T05:22:28.202Z,11.40
2022-11-06T05:24:56.543Z,11.60
2022-11-06T05:27:24.583Z,12.70
2022-11-06T05:29:52.646Z,12.40
2022-11-06T05:32:21.016Z,12.50
2022-11-06T05:34:49.053Z,13.30
2022-11-06T05:37:17.178Z,13.40
2022-11-06T05:39:51.504Z,13.00
2022-11-06T05:42:19.655Z,12.90
2022-11-06T05:44:47.992Z,12.30
2022-11-06T05:47:16.078Z,11.10
2022-11-06T05:49:44.236Z,13.20
2022-11-06T05:52:12.473Z,13.00
2022-11-06T05:54:40.466Z,11.20
2022-11-06T05:57:08.615Z,12.00
2022-11-06T05:59:37.317Z,11.10
2022-11-06T06:02:05.438Z,11.70
2022-11-06T06:04:33.522Z,11.30
2022-11-06T06:07:01.745Z,11.80
2022-11-06T06:09:30.449Z,10.70
2022-11-06T06:11:58.441Z,11.10
2022-11-06T06:14:26.643Z,11.00
2022-11-06T06:16:54.764Z,10.60
2022-11-06T06:19:22.757Z,11.70
2022-11-06T06:21:50.862Z,10.70
2022-11-06T06:24:18.993Z,10.20
2022-11-06T06:26:47.226Z,10.80
2022-11-06T06:29:16.705Z,10.60
2022-11-06T06:31:45.112Z,10.90
2022-11-06T06:34:13.176Z,10.10
2022-11-06T06:36:41.493Z,10.00
2022-11-06T06:39:09.834Z,9.90
2022-11-06T06:41:38.492Z,10.90
2022-11-06T06:44:06.827Z,9.80
2022-11-06T06:46:34.897Z,9.00
2022-11-06T06:49:03.092Z,8.90
2022-11-06T06:51:31.302Z,8.90
2022-11-06T06:53:59.412Z,9.10
2022-11-06T06:56:27.423Z,9.00
2022-11-06T06:58:56.093Z,9.50
2022-11-06T07:01:24.588Z,9.70
2022-11-06T07:03:52.897Z,9.10
2022-11-06T07:06:21.658Z,9.30
2022-11-06T07:08:49.653Z,8.70
2022-11-06T07:11:18.565Z,9.10
2022-11-06T07:13:46.981Z,9.40
2022-11-06T07:16:15.139Z,9.90
2022-11-06T07:18:43.235Z,8.70
2022-11-06T07:21:12.788Z,10.20
2022-11-06T07:23:41.144Z,10.10
2022-11-06T07:26:09.546Z,10.20
2022-11-06T07:28:37.929Z,9.80
2022-11-06T07:31:07.883Z,9.20
2022-11-06T07:33:36.235Z,9.80
2022-11-06T07:36:10.064Z,8.90
2022-11-06T07:38:39.719Z,9.70
2022-11-06T07:41:14.259Z,9.40
2022-11-06T07:43:43.614Z,9.60
2022-11-06T07:46:13.709Z,8.60
2022-11-06T07:48:41.741Z,10.10
2022-11-06T07:51:10.865Z,10.10
2022-11-06T07:53:39.260Z,10.30
2022-11-06T07:56:08.854Z,10.20
2022-11-06T07:58:37.280Z,9.00
2022-11-06T08:01:06.287Z,9.10
2022-11-06T08:03:34.545Z,10.10
2022-11-06T08:06:05.271Z,8.80
2022-11-06T08:08:33.897Z,10.30
2022-11-06T08:11:07.547Z,9.40
2022-11-06T08:13:36.234Z,10.10
2022-11-06T08:16:13.269Z,9.20
2022-11-06T08:18:41.903Z,9.50
2022-11-06T08:21:09.921Z,10.00
2022-11-06T08:23:38.025Z,10.00
2022-11-06T08:26:07.414Z,9.90
2022-11-06T08:28:35.685Z,9.50
2022-11-06T08:31:08.394Z,9.10
2022-11-06T08:33:38.612Z,9.90
2022-11-06T08:36:08.619Z,9.30
2022-11-06T08:38:36.974Z,9.30
2022-11-06T08:41:10.726Z,9.40
2022-11-06T08:43:39.977Z,10.50
2022-11-06T08:46:09.820Z,9.90
2022-11-06T08:48:38.102Z,9.60
2022-11-06T08:51:06.704Z,10.10
2022-11-06T08:53:35.292Z,9.90
2022-11-06T08:56:04.841Z,9.60
2022-11-06T08:58:32.971Z,9.40
2022-11-06T09:01:01.035Z,10.20
2022-11-06T09:03:29.126Z,9.40
2022-11-06T09:05:57.707Z,9.60
2022-11-06T09:08:26.521Z,9.50
2022-11-06T09:10:58.462Z,9.90
2022-11-06T09:13:27.370Z,11.00
2022-11-06T09:15:55.535Z,9.80
2022-11-06T09:18:23.638Z,9.20
2022-11-06T09:20:56.339Z,9.20
2022-11-06T09:23:24.794Z,9.60
2022-11-06T09:25:52.990Z,9.20
2022-11-06T09:28:21.148Z,7.40
2022-11-06T09:30:49.240Z,7.20
2022-11-06T09:33:18.316Z,8.00
2022-11-06T09:35:46.632Z,5.70
2022-11-06T09:38:17.371Z,5.50
2022-11-06T09:40:52.717Z,6.30
2022-11-06T09:46:32.056Z,5.40
2022-11-06T09:49:03.129Z,5.30
2022-11-06T09:51:52.078Z,4.30
2022-11-06T09:54:27.573Z,4.30
2022-11-06T09:57:06.450Z,5.10
2022-11-06T09:59:37.687Z,5.20
2022-11-06T10:02:20.307Z,4.60
2022-11-06T10:05:18.740Z,4.80
2022-11-06T10:07:52.015Z,3.90
2022-11-06T10:10:26.808Z,3.90
2022-11-06T10:13:04.675Z,4.70
2022-11-06T10:15:45.177Z,3.40
2022-11-06T10:18:38.361Z,3.40
2022-11-06T10:21:12.834Z,3.30
2022-11-06T10:23:51.031Z,3.30
2022-11-06T10:26:28.673Z,2.90
2022-11-06T10:29:18.135Z,3.10
2022-11-06T10:32:34.540Z,3.60
2022-11-06T10:35:12.088Z,2.90
2022-11-06T10:37:48.015Z,2.80
2022-11-06T10:40:21.596Z,2.90
2022-11-06T10:43:09.072Z,2.60
2022-11-06T10:45:41.451Z,2.70
2022-11-06T10:48:29.868Z,2.20
2022-11-06T10:51:34.508Z,2.30
2022-11-06T10:54:14.312Z,1.80
2022-11-06T10:56:57.347Z,1.50
2022-11-06T10:59:25.682Z,2.10
2022-11-06T11:01:54.440Z,2.50
2022-11-06T11:04:22.661Z,3.10
2022-11-06T11:06:50.805Z,3.50
2022-11-06T11:09:28.722Z,3.10
2022-11-06T11:12:00.590Z,3.20
2022-11-06T11:14:31.276Z,2.60
2022-11-06T11:17:01.555Z,4.10
2022-11-06T11:19:39.012Z,3.40
2022-11-06T11:22:16.046Z,2.90
2022-11-06T11:25:08.686Z,2.80
2022-11-06T11:27:46.074Z,3.30
2022-11-06T11:30:23.458Z,2.50
2022-11-06T11:32:52.585Z,3.30
2022-11-06T11:35:27.326Z,3.60
2022-11-06T11:38:26.136Z,3.70
2022-11-06T11:41:08.007Z,3.40
2022-11-06T11:43:36.185Z,2.80
2022-11-06T11:46:05.427Z,2.40
2022-11-06T11:48:45.741Z,2.10
2022-11-06T11:51:19.709Z,1.80
2022-11-06T11:53:47.944Z,2.10
2022-11-06T11:56:36.210Z,2.40
2022-11-06T11:59:11.096Z,1.60
2022-11-06T12:01:40.913Z,1.90
2022-11-06T12:04:19.745Z,2.40
2022-11-06T12:06:54.805Z,2.40
2022-11-06T12:09:24.165Z,2.50
2022-11-06T12:11:54.659Z,2.10
2022-11-06T12:14:22.632Z,2.60
2022-11-06T12:16:53.794Z,2.50
2022-11-06T12:19:26.461Z,2.40
2022-11-06T12:22:02.119Z,2.20
2022-11-06T12:24:43.396Z,1.80
2022-11-06T12:27:18.554Z,1.70
2022-11-06T12:29:58.055Z,1.60
2022-11-06T12:32:31.976Z,2.00
2022-11-06T12:35:27.875Z,1.90
2022-11-06T12:38:26.722Z,1.90
2022-11-06T12:41:01.366Z,2.20
2022-11-06T12:43:37.509Z,1.90
2022-11-06T12:46:36.564Z,2.30
2022-11-06T12:49:32.400Z,2.30
2022-11-06T12:52:25.832Z,2.10
2022-11-06T12:55:18.037Z,1.90
2022-11-06T12:58:07.547Z,2.10
2022-11-06T13:00:57.148Z,2.60
2022-11-06T13:03:28.418Z,2.30
2022-11-06T13:05:59.278Z,1.70
2022-11-06T13:11:25.045Z,1.70
2022-11-06T13:14:00.848Z,1.90
2022-11-06T13:17:01.181Z,1.90
2022-11-06T13:19:29.355Z,2.20
2022-11-06T13:22:07.745Z,1.80
2022-11-06T13:24:51.722Z,1.50
2022-11-06T13:27:39.720Z,2.50
2022-11-06T13:30:24.562Z,1.80
2022-11-06T13:33:10.950Z,1.90
2022-11-06T13:35:43.373Z,1.70
2022-11-06T13:38:19.467Z,2.10
2022-11-06T13:40:53.730Z,1.70
2022-11-06T13:43:45.858Z,2.30
2022-11-06T13:46:45.001Z,1.90
2022-11-06T13:49:46.616Z,2.00
2022-11-06T13:52:51.020Z,2.10
2022-11-06T13:55:36.114Z,1.80
2022-11-06T13:58:29.123Z,1.90
2022-11-06T14:01:19.030Z,1.90
2022-11-06T14:04:04.276Z,1.80
2022-11-06T14:06:36.799Z,1.60
2022-11-06T14:09:19.154Z,1.80
2022-11-06T14:11:55.215Z,1.40
2022-11-06T14:14:26.367Z,1.80
2022-11-06T14:17:17.720Z,1.40
2022-11-06T14:19:50.214Z,2.00
2022-11-06T14:22:28.344Z,1.80
2022-11-06T14:25:01.480Z,1.90
2022-11-06T14:27:30.098Z,1.90
2022-11-06T14:30:07.966Z,1.40
2022-11-06T14:32:41.153Z,1.30
2022-11-06T14:35:28.835Z,1.90
2022-11-06T14:38:17.671Z,1.40
2022-11-06T14:40:46.172Z,1.40
2022-11-06T14:43:26.487Z,1.50
2022-11-06T14:46:00.480Z,1.60
2022-11-06T14:48:33.900Z,1.80
2022-11-06T14:51:05.765Z,1.70
2022-11-06T14:53:48.426Z,1.40
2022-11-06T14:56:24.693Z,1.60
2022-11-06T14:59:04.248Z,1.50
2022-11-06T15:01:35.474Z,1.30
2022-11-06T15:04:05.916Z,1.60
2022-11-06T15:06:33.967Z,1.50
2022-11-06T15:09:06.754Z,2.40
2022-11-06T15:11:47.439Z,1.50
2022-11-06T15:16:50.736Z,1.50
2022-11-06T15:19:23.705Z,1.50
2022-11-06T15:21:58.011Z,2.20
2022-11-06T15:24:34.576Z,2.00
2022-11-06T15:27:12.899Z,3.80
2022-11-06T15:29:43.262Z,2.00
2022-11-06T15:32:19.579Z,2.20
2022-11-06T15:34:59.836Z,1.90
2022-11-06T15:37:36.196Z,1.80
2022-11-06T15:40:05.515Z,2.30
2022-11-06T15:42:37.255Z,7.30
2022-11-06T15:45:15.762Z,20.80
2022-11-06T15:48:23.454Z,10.10
2022-11-06T15:50:51.478Z,6.00
2022-11-06T15:53:26.248Z,6.50
2022-11-06T15:56:00.276Z,6.10
2022-11-06T15:58:37.464Z,12.20
2022-11-06T16:01:07.897Z,14.50
2022-11-06T16:03:53.590Z,22.20
2022-11-06T16:06:21.866Z,40.70
2022-11-06T16:08:51.259Z,52.80
2022-11-06T16:11:20.679Z,42.80
2022-11-06T16:13:49.686Z,37.90
2022-11-06T16:16:42.234Z,33.10
2022-11-06T16:19:40.177Z,26.10
2022-11-06T16:22:13.339Z,22.70
2022-11-06T16:24:50.673Z,18.90
2022-11-06T16:27:19.836Z,16.70
2022-11-06T16:29:52.594Z,14.80
2022-11-06T16:32:23.762Z,15.00
2022-11-06T16:37:20.918Z,14.50
2022-11-06T16:39:53.681Z,15.30
2022-11-06T16:42:30.686Z,15.80
2022-11-06T16:45:03.164Z,16.40
2022-11-06T16:47:31.312Z,15.70
2022-11-06T16:50:01.947Z,16.10
2022-11-06T16:52:39.315Z,16.10
2022-11-06T16:55:17.388Z,17.10
2022-11-06T16:57:53.557Z,16.20
2022-11-06T17:00:23.737Z,16.80
2022-11-06T17:02:55.743Z,17.80
2022-11-06T17:05:33.712Z,18.50
2022-11-06T17:08:18.497Z,17.50
2022-11-06T17:10:48.146Z,17.40
2022-11-06T17:13:28.122Z,15.90
2022-11-06T17:15:59.206Z,15.30
2022-11-06T17:18:35.983Z,12.70
2022-11-06T17:21:16.102Z,11.90
2022-11-06T17:23:45.946Z,12.00
2022-11-06T17:26:19.973Z,11.70
2022-11-06T17:28:49.479Z,12.00
2022-11-06T17:31:20.210Z,14.40
2022-11-06T17:33:48.898Z,14.70
2022-11-06T17:36:28.740Z,18.70
2022-11-06T17:38:58.010Z,19.00
2022-11-06T17:41:32.958Z,17.60
2022-11-06T17:44:03.092Z,16.80
2022-11-06T17:46:37.222Z,15.40
2022-11-06T17:49:06.522Z,14.10
2022-11-06T17:51:50.669Z,14.00
2022-11-06T17:54:25.502Z,14.40
2022-11-06T17:56:58.164Z,14.20
2022-11-06T17:59:26.824Z,12.10
2022-11-06T18:01:55.329Z,12.30
2022-11-06T18:04:26.630Z,11.00
2022-11-06T18:09:24.281Z,11.60
2022-11-06T18:11:54.199Z,11.50
2022-11-06T18:14:24.805Z,11.40
2022-11-06T18:16:53.922Z,12.80
2022-11-06T18:19:24.196Z,11.40
2022-11-06T18:21:53.961Z,13.40
2022-11-06T18:24:22.709Z,13.00
2022-11-06T18:26:51.823Z,14.10
2022-11-06T18:29:19.991Z,13.50
2022-11-06T18:31:48.152Z,14.60
2022-11-06T18:34:20.507Z,14.90
2022-11-06T18:36:50.623Z,12.90
2022-11-06T18:39:19.706Z,12.80
2022-11-06T18:41:48.262Z,14.90
2022-11-06T18:44:18.230Z,14.00
2022-11-06T18:46:47.877Z,13.30
2022-11-06T18:49:16.040Z,12.00
2022-11-06T18:51:44.277Z,12.10
2022-11-06T18:54:12.892Z,13.10
2022-11-06T18:56:41.534Z,13.40
2022-11-06T18:59:15.340Z,13.50
2022-11-06T19:01:43.942Z,15.90
2022-11-06T19:04:12.305Z,14.70
2022-11-06T19:06:40.894Z,15.00
2022-11-06T19:09:09.884Z,13.70
2022-11-06T19:11:38.492Z,14.50
2022-11-06T19:14:06.723Z,14.30
2022-11-06T19:16:34.887Z,15.70
2022-11-06T19:19:05.689Z,15.80
2022-11-06T19:21:34.957Z,12.90
2022-11-06T19:24:05.978Z,13.20
2022-11-06T19:26:36.395Z,13.20
2022-11-06T19:29:08.291Z,13.90
2022-11-06T19:31:38.663Z,14.00
2022-11-06T19:34:08.375Z,11.00
2022-11-06T19:36:36.640Z,11.60
2022-11-06T19:39:05.841Z,11.30
2022-11-06T19:41:34.438Z,12.20
2022-11-06T19:44:02.684Z,10.60
2022-11-06T19:46:35.873Z,11.70
2022-11-06T19:49:07.000Z,12.20
2022-11-06T19:51:41.078Z,12.30
2022-11-06T19:54:11.349Z,12.70
2022-11-06T19:57:27.189Z,14.00
2022-11-06T19:59:28.049Z,14.60
2022-11-06T20:01:56.437Z,17.30
2022-11-06T20:04:24.931Z,15.70
2022-11-06T20:06:54.359Z,15.40
2022-11-06T20:09:22.951Z,13.50
2022-11-06T20:11:52.932Z,14.70
2022-11-06T20:14:22.043Z,15.80
2022-11-06T20:16:50.597Z,14.20
2022-11-06T20:19:19.773Z,14.70
2022-11-06T20:21:48.529Z,13.30
2022-11-06T20:24:16.624Z,14.20
2022-11-06T20:26:45.002Z,14.30
2022-11-06T20:29:13.343Z,14.00
2022-11-06T20:31:42.370Z,12.40
2022-11-06T20:34:10.388Z,14.00
2022-11-06T20:36:38.801Z,13.50
2022-11-06T20:39:07.174Z,14.90
2022-11-06T20:41:35.314Z,14.60
2022-11-06T20:44:04.462Z,12.30
2022-11-06T20:46:32.759Z,11.30
2022-11-06T20:49:00.851Z,12.30
2022-11-06T20:51:31.832Z,10.00
2022-11-06T20:54:00.737Z,9.40
2022-11-06T20:56:31.911Z,8.70
2022-11-06T20:59:00.080Z,10.90
2022-11-06T21:01:29.647Z,9.90
2022-11-06T21:03:58.567Z,10.30
2022-11-06T21:06:28.168Z,9.90
2022-11-06T21:08:56.690Z,14.40
2022-11-06T21:11:27.651Z,13.70
2022-11-06T21:13:56.520Z,19.20
2022-11-06T21:16:34.057Z,19.50
2022-11-06T21:19:03.583Z,18.30
2022-11-06T21:21:34.053Z,18.90
2022-11-06T21:24:03.155Z,17.80
2022-11-06T21:26:33.753Z,17.70
2022-11-06T21:29:04.505Z,16.10
2022-11-06T21:31:33.412Z,18.70
2022-11-06T21:34:03.202Z,17.30
2022-11-06T21:36:34.120Z,15.30
2022-11-06T21:39:07.656Z,12.90
2022-11-06T21:41:36.754Z,17.80
2022-11-06T21:44:06.304Z,15.90
2022-11-06T21:46:34.834Z,21.10
2022-11-06T21:49:03.155Z,17.20
2022-11-06T21:51:32.558Z,15.40
2022-11-06T21:54:19.730Z,15.90
2022-11-06T21:56:49.727Z,16.10
2022-11-06T21:59:19.933Z,17.30
2022-11-06T22:01:48.104Z,14.60
2022-11-06T22:04:16.316Z,15.60
2022-11-06T22:06:44.709Z,16.70
2022-11-06T22:09:14.235Z,15.40
2022-11-06T22:11:44.261Z,13.40
2022-11-06T22:14:14.985Z,13.60
2022-11-06T22:16:45.746Z,12.30
2022-11-06T22:19:15.466Z,12.60
2022-11-06T22:21:44.715Z,17.10
2022-11-06T22:24:14.026Z,21.10
2022-11-06T22:26:42.251Z,19.50
2022-11-06T22:29:14.312Z,14.80
2022-11-06T22:31:42.876Z,14.80
2022-11-06T22:34:12.432Z,16.60
2022-11-06T22:36:41.310Z,16.50
2022-11-06T22:39:10.786Z,15.40
2022-11-06T22:41:39.609Z,20.30
2022-11-06T22:44:08.245Z,21.50
2022-11-06T22:46:36.946Z,18.80
2022-11-06T22:49:05.435Z,19.50
2022-11-06T22:51:34.465Z,14.20
2022-11-06T22:54:04.017Z,13.90
2022-11-06T22:56:32.749Z,12.30
2022-11-06T22:59:05.453Z,12.40
2022-11-06T23:01:41.199Z,12.80
2022-11-06T23:04:16.650Z,11.70
2022-11-06T23:06:45.662Z,13.50
2022-11-06T23:09:14.517Z,12.90
2022-11-06T23:11:46.130Z,10.50
2022-11-06T23:14:14.949Z,11.80
2022-11-06T23:16:59.184Z,11.20
2022-11-06T23:19:29.741Z,12.60
2022-11-06T23:22:16.902Z,11.00
2022-11-06T23:24:45.685Z,11.70
2022-11-06T23:27:13.980Z,12.20
2022-11-06T23:29:42.168Z,11.50
2022-11-06T23:32:10.499Z,12.60
2022-11-06T23:34:38.757Z,12.40
2022-11-06T23:37:06.898Z,12.60
2022-11-06T23:39:35.116Z,13.00
2022-11-06T23:42:03.196Z,13.60
2022-11-06T23:44:49.985Z,11.20
2022-11-06T23:47:18.454Z,13.30
2022-11-06T23:49:46.481Z,11.70
2022-11-06T23:52:14.937Z,12.70
2022-11-06T23:54:43.627Z,13.00
2022-11-06T23:57:12.938Z,13.90
2022-11-06T23:59:41.424Z,14.20
